East Orleans, MA

2:34 PM EDT on April 25, 2015 (GMT -0400)
Nauset Heights Bluff | | Change Station
CLOSE
Current Station
Personal Weather Station
Location: Orleans, MA
Elevation: 40 ft
Nearby Weather Stations

Elev 40 ft 41.80 °N, 69.94 °W | Updated 55 seconds ago

Partly Cloudy
Partly Cloudy
60.6 °F
Feels Like 60.6 °F
N
6.0
Wind Variable Wind from North
Gusts 0.0 mph

Today
High -- | Low -- °F
--% Chance of Precip.
Yesterday
High -- | Low -- °F
Precip. -- in
5:44 AM 7:31 PM
Waxing Crescent, 48% visible
Pressure 29.74 in
Visibility 10.0 miles
Clouds Scattered Clouds 6000 ft
Dew Point 35 °F
Humidity 38%
Rainfall 0.00 in
Snow Depth Not available.
UV 7 out of 12
Pollen 10.30 out of 12
Air Quality Not available.
Flu Activity Widespread
METAR KCQX 251752Z AUTO 23012G15KT 10SM SCT060 09/M01 A2973 RMK AO2 SLP069 T00941011 10106 20044 56009

More Conditions Fewer Conditions

Pressure 29.74 in
Visibility 10.0 miles
Clouds Scattered Clouds 6000 ft
Dew Point 35 °F
Humidity 38%
Rainfall 0.00 in
Snow Depth Not available.
UV 7 out of 12
Pollen 10.30 out of 12
Air Quality Not available.
Flu Activity Widespread
METAR KCQX 251752Z AUTO 23012G15KT 10SM SCT060 09/M01 A2973 RMK AO2 SLP069 T00941011 10106 20044 56009

More Conditions Fewer Conditions

10-Day Weather Forecast

Almanac

Astronomy

Apr. 25, 2015 Rise Set
Actual Time
Civil Twilight
Nautical Twilight
Astronomical Twilight
Moon
Length of Visible Light
Length of Day
Tomorrow will be .
, % of the Moon is Illuminated

Today's Extremes

State Highs State Lows

Community

WunderPhotos

Upload Photos

1,816,766 photos uploaded!

WunderBlogs® & News

Nearby

Air Quality

  Air Quality AQ Index Pollutant
Not available.

Snow Depth

Station Depth Elevation

Earthquake Activity

City Distance Mag. Time & Date
Minimum magnitude displayed is 2.5.

Coastal Water Temperatures

Place Temperature

Stations

Nearby Weather Stations

Station Location Temp. Windchill Dew Point Humidity Wind Precip. Elev Updated Type